createdAt,value
2019-01-06T00:00:55.049Z,5.18
2019-01-06T00:06:26.431Z,5.12
2019-01-06T00:11:55.222Z,5.08
2019-01-06T00:17:32.105Z,5.07
2019-01-06T00:23:04.378Z,5.06
2019-01-06T00:28:25.962Z,5.09
2019-01-06T00:33:50.151Z,5.15
2019-01-06T00:39:10.430Z,5.16
2019-01-06T00:44:25.319Z,5.12
2019-01-06T00:50:02.128Z,5.02
2019-01-06T00:55:23.650Z,5.03
2019-01-06T01:00:51.274Z,4.87
2019-01-06T01:06:20.840Z,4.87
2019-01-06T01:11:42.420Z,4.87
2019-01-06T01:17:02.857Z,4.84
2019-01-06T01:22:27.014Z,4.87
2019-01-06T01:27:51.286Z,4.86
2019-01-06T01:33:25.225Z,4.91
2019-01-06T01:38:45.591Z,4.88
2019-01-06T01:44:19.480Z,4.81
2019-01-06T01:49:40.103Z,4.74
2019-01-06T01:55:04.582Z,4.50
2019-01-06T02:00:25.464Z,4.51
2019-01-06T02:05:45.847Z,4.51
2019-01-06T02:11:08.983Z,4.36
2019-01-06T02:16:30.618Z,4.30
2019-01-06T02:21:50.579Z,4.22
2019-01-06T02:27:14.750Z,4.23
2019-01-06T02:32:42.583Z,4.11
2019-01-06T02:38:10.347Z,4.06
2019-01-06T02:43:31.209Z,3.94
2019-01-06T02:48:48.033Z,3.93
2019-01-06T02:54:10.378Z,3.94
2019-01-06T02:59:30.466Z,3.97
2019-01-06T03:05:00.925Z,3.87
2019-01-06T03:10:26.263Z,3.80
2019-01-06T03:15:48.139Z,3.78
2019-01-06T03:21:15.669Z,3.73
2019-01-06T03:26:53.741Z,3.66
2019-01-06T03:32:09.833Z,3.66
2019-01-06T03:37:30.074Z,3.57
2019-01-06T03:43:05.695Z,3.64
2019-01-06T03:48:28.295Z,3.55
2019-01-06T03:54:04.921Z,3.43
2019-01-06T03:59:20.449Z,3.52
2019-01-06T04:04:40.934Z,3.54
2019-01-06T04:10:00.426Z,3.55
2019-01-06T04:15:20.958Z,3.48
2019-01-06T04:20:39.833Z,3.45
2019-01-06T04:26:00.127Z,3.37
2019-01-06T04:31:31.912Z,3.51
2019-01-06T04:36:51.722Z,3.44
2019-01-06T04:42:12.073Z,3.38
2019-01-06T04:47:32.182Z,3.50
2019-01-06T04:52:56.369Z,3.50
2019-01-06T04:58:19.578Z,3.51
2019-01-06T05:03:54.157Z,3.51
2019-01-06T05:09:14.682Z,3.66
2019-01-06T05:14:34.913Z,3.69
2019-01-06T05:19:54.362Z,3.76
2019-01-06T05:25:19.143Z,3.62
2019-01-06T05:30:39.288Z,3.64
2019-01-06T05:36:08.047Z,3.68
2019-01-06T05:41:32.536Z,3.66
2019-01-06T05:46:52.042Z,3.75
2019-01-06T05:52:31.942Z,3.58
2019-01-06T05:57:52.523Z,3.67
2019-01-06T06:03:14.635Z,3.67
2019-01-06T06:08:34.188Z,3.72
2019-01-06T06:13:55.305Z,3.67
2019-01-06T06:19:19.888Z,3.68
2019-01-06T06:24:44.163Z,3.79
2019-01-06T06:30:24.167Z,3.80
2019-01-06T06:35:44.480Z,3.80
2019-01-06T06:41:21.086Z,3.60
2019-01-06T06:46:55.196Z,3.60
2019-01-06T06:52:11.215Z,3.56
2019-01-06T06:58:08.520Z,3.56
2019-01-06T07:03:39.115Z,3.62
2019-01-06T07:09:02.546Z,3.72
2019-01-06T07:14:16.889Z,3.60
2019-01-06T07:19:39.452Z,3.57
2019-01-06T07:25:04.877Z,3.62
2019-01-06T07:30:25.596Z,3.57
2019-01-06T07:35:46.270Z,3.67
2019-01-06T07:41:06.312Z,3.65
2019-01-06T07:46:19.664Z,3.64
2019-01-06T07:51:30.937Z,3.74
2019-01-06T07:56:55.952Z,3.82
2019-01-06T08:02:18.723Z,3.81
2019-01-06T08:07:43.181Z,3.85
2019-01-06T08:13:06.013Z,3.74
2019-01-06T08:18:26.659Z,3.98
2019-01-06T08:23:50.806Z,4.06
2019-01-06T08:29:11.202Z,4.13
2019-01-06T08:34:31.345Z,4.33
2019-01-06T08:39:51.323Z,4.41
2019-01-06T08:45:08.311Z,4.42
2019-01-06T08:50:35.784Z,4.30
2019-01-06T08:56:02.994Z,4.38
2019-01-06T09:01:23.375Z,4.44
2019-01-06T09:06:54.372Z,4.61
2019-01-06T09:12:18.586Z,4.58
2019-01-06T09:17:44.471Z,4.59
2019-01-06T09:23:04.882Z,4.56
2019-01-06T09:28:38.430Z,4.61
2019-01-06T09:33:58.369Z,4.60
2019-01-06T09:39:22.591Z,4.51
2019-01-06T09:44:36.185Z,4.59
2019-01-06T09:50:03.756Z,4.67
2019-01-06T09:55:24.166Z,4.67
2019-01-06T10:00:45.184Z,4.46
2019-01-06T10:06:05.311Z,4.65
2019-01-06T10:11:25.925Z,4.86
2019-01-06T10:16:55.882Z,4.80
2019-01-06T10:22:23.429Z,4.89
2019-01-06T10:27:57.280Z,4.85
2019-01-06T10:33:18.283Z,5.05
2019-01-06T10:38:40.512Z,5.05
2019-01-06T10:44:00.536Z,5.11
2019-01-06T10:49:34.061Z,5.15
2019-01-06T10:54:56.955Z,5.11
2019-01-06T11:00:38.101Z,5.30
2019-01-06T11:05:59.520Z,5.10
2019-01-06T11:11:33.243Z,5.22
2019-01-06T11:16:54.805Z,5.20
2019-01-06T11:22:06.798Z,5.52
2019-01-06T11:27:27.361Z,5.18
2019-01-06T11:32:46.595Z,5.26
2019-01-06T11:38:21.233Z,5.08
2019-01-06T11:43:58.283Z,4.93
2019-01-06T11:49:20.111Z,5.28
2019-01-06T11:54:33.664Z,5.58
2019-01-06T11:59:49.596Z,5.53
2019-01-06T12:05:11.135Z,5.23
2019-01-06T12:10:44.566Z,5.33
2019-01-06T12:16:08.953Z,5.21
2019-01-06T12:21:37.318Z,5.38
2019-01-06T12:26:57.330Z,5.09
2019-01-06T12:32:23.883Z,5.03
2019-01-06T12:38:00.606Z,5.70
2019-01-06T12:43:20.873Z,5.20
2019-01-06T12:48:41.124Z,5.46
2019-01-06T12:54:01.182Z,5.86
2019-01-06T12:59:21.494Z,5.96
2019-01-06T13:04:45.688Z,5.57
2019-01-06T13:10:18.633Z,5.47
2019-01-06T13:15:38.484Z,5.13
2019-01-06T13:21:00.542Z,5.73
2019-01-06T13:26:33.956Z,5.58
2019-01-06T13:31:46.747Z,5.63
2019-01-06T13:37:07.057Z,5.48
2019-01-06T13:42:27.483Z,5.62
2019-01-06T13:47:47.746Z,5.57
2019-01-06T13:53:08.350Z,5.75
2019-01-06T13:58:38.229Z,5.57
2019-01-06T14:03:58.429Z,5.64
2019-01-06T14:09:20.016Z,5.69
2019-01-06T14:14:45.763Z,5.73
2019-01-06T14:20:16.636Z,5.91
2019-01-06T14:25:34.018Z,5.90
2019-01-06T14:30:54.574Z,5.90
2019-01-06T14:36:16.212Z,5.96
2019-01-06T14:41:39.226Z,5.95
2019-01-06T14:47:03.375Z,5.68
2019-01-06T14:52:31.066Z,5.63
2019-01-06T14:58:04.571Z,5.68
2019-01-06T15:03:33.005Z,5.63
2019-01-06T15:08:53.384Z,5.59
2019-01-06T15:14:17.530Z,5.50
2019-01-06T15:19:36.397Z,5.53
2019-01-06T15:24:59.372Z,5.56
2019-01-06T15:30:20.951Z,5.50
2019-01-06T15:35:48.661Z,5.48
2019-01-06T15:41:08.897Z,5.35
2019-01-06T15:46:37.934Z,5.28
2019-01-06T15:51:58.556Z,5.36
2019-01-06T15:57:35.114Z,5.35
2019-01-06T16:02:57.397Z,5.26
2019-01-06T16:08:27.869Z,5.15
2019-01-06T16:13:49.450Z,5.28
2019-01-06T16:19:04.317Z,5.21
2019-01-06T16:24:24.336Z,5.20
2019-01-06T16:29:52.236Z,5.25
2019-01-06T16:35:19.789Z,5.18
2019-01-06T16:40:39.853Z,5.24
2019-01-06T16:46:00.116Z,5.25
2019-01-06T16:51:20.619Z,5.30
2019-01-06T16:56:47.880Z,5.25
2019-01-06T17:02:05.972Z,5.04
2019-01-06T17:07:26.164Z,5.08
2019-01-06T17:12:46.319Z,5.05
2019-01-06T17:18:06.400Z,5.11
2019-01-06T17:23:26.608Z,5.08
2019-01-06T17:28:46.597Z,4.80
2019-01-06T17:34:06.887Z,4.90
2019-01-06T17:39:40.372Z,5.08
2019-01-06T17:45:10.843Z,5.11
2019-01-06T17:50:31.370Z,5.10
2019-01-06T17:56:04.321Z,5.09
2019-01-06T18:01:35.565Z,5.05
2019-01-06T18:06:59.528Z,5.13
2019-01-06T18:12:27.928Z,4.99
2019-01-06T18:18:07.559Z,5.01
2019-01-06T18:23:33.797Z,5.15
2019-01-06T18:28:48.929Z,5.10
2019-01-06T18:34:10.103Z,5.15
2019-01-06T18:39:27.344Z,5.17
2019-01-06T18:44:59.740Z,5.20
2019-01-06T18:50:20.345Z,5.11
2019-01-06T18:55:40.295Z,5.11
2019-01-06T19:01:12.472Z,5.14
2019-01-06T19:06:33.059Z,5.21
2019-01-06T19:12:00.781Z,5.15
2019-01-06T19:17:21.367Z,5.00
2019-01-06T19:22:39.196Z,5.04
2019-01-06T19:27:59.296Z,4.91
2019-01-06T19:33:20.196Z,4.96
2019-01-06T19:38:40.209Z,5.10
2019-01-06T19:44:00.442Z,5.03
2019-01-06T19:49:22.023Z,4.94
2019-01-06T19:54:41.137Z,5.05
2019-01-06T20:00:01.217Z,5.07
2019-01-06T20:05:21.915Z,5.10
2019-01-06T20:10:41.962Z,5.13
2019-01-06T20:16:02.051Z,5.09
2019-01-06T20:21:31.165Z,5.03
2019-01-06T20:26:52.791Z,5.05
2019-01-06T20:32:20.548Z,5.03
2019-01-06T20:37:36.808Z,5.03
2019-01-06T20:43:07.592Z,5.07
2019-01-06T20:54:13.640Z,4.95
2019-01-06T20:59:33.842Z,4.91
2019-01-06T21:04:55.000Z,4.87
2019-01-06T21:10:15.435Z,4.78
2019-01-06T21:15:36.931Z,4.84
2019-01-06T21:21:04.170Z,4.86
2019-01-06T21:26:24.299Z,4.83
2019-01-06T21:31:57.802Z,4.74
2019-01-06T21:37:28.271Z,4.72
2019-01-06T21:42:49.304Z,4.76
2019-01-06T21:48:09.905Z,4.71
2019-01-06T21:53:34.218Z,4.74
2019-01-06T21:58:49.973Z,4.71
2019-01-06T22:04:14.629Z,4.75
2019-01-06T22:09:39.420Z,4.74
2019-01-06T22:15:06.998Z,4.69
2019-01-06T22:20:17.211Z,4.69
2019-01-06T22:25:32.072Z,4.63
2019-01-06T22:30:52.294Z,4.51
2019-01-06T22:36:13.911Z,4.57
2019-01-06T22:41:43.456Z,4.60
2019-01-06T22:47:17.481Z,4.30
2019-01-06T22:52:44.673Z,4.39
2019-01-06T22:58:08.027Z,4.30
2019-01-06T23:03:32.829Z,4.29
2019-01-06T23:08:53.068Z,4.34
2019-01-06T23:14:14.704Z,4.30
2019-01-06T23:19:45.388Z,4.30
2019-01-06T23:25:05.624Z,4.25
2019-01-06T23:30:33.338Z,4.40
2019-01-06T23:35:54.943Z,4.35
2019-01-06T23:41:15.159Z,4.24
2019-01-06T23:46:42.472Z,4.31
2019-01-06T23:52:02.997Z,4.23
2019-01-06T23:57:24.081Z,4.32
